sensor_id;sensor_type;location;lat;lon;timestamp;P1;durP1;ratioP1;P2;durP2;ratioP2
22973;SDS011;11653;50.848;4.584;2022-12-29T00:02:10;2.10;;;1.30;;
22973;SDS011;11653;50.848;4.584;2022-12-29T00:04:36;1.93;;;1.47;;
22973;SDS011;11653;50.848;4.584;2022-12-29T00:07:02;1.27;;;1.17;;
22973;SDS011;11653;50.848;4.584;2022-12-29T00:09:29;2.43;;;1.20;;
22973;SDS011;11653;50.848;4.584;2022-12-29T00:11:56;1.33;;;1.23;;
22973;SDS011;11653;50.848;4.584;2022-12-29T00:14:22;1.90;;;1.20;;
22973;SDS011;11653;50.848;4.584;2022-12-29T00:17:06;2.60;;;1.10;;
22973;SDS011;11653;50.848;4.584;2022-12-29T00:19:32;2.20;;;1.30;;
22973;SDS011;11653;50.848;4.584;2022-12-29T00:22:17;2.20;;;1.10;;
22973;SDS011;11653;50.848;4.584;2022-12-29T00:25:01;2.50;;;1.43;;
22973;SDS011;11653;50.848;4.584;2022-12-29T00:27:46;1.83;;;1.10;;
22973;SDS011;11653;50.848;4.584;2022-12-29T00:30:30;3.03;;;0.83;;
22973;SDS011;11653;50.848;4.584;2022-12-29T00:33:18;1.43;;;0.80;;
22973;SDS011;11653;50.848;4.584;2022-12-29T00:38:33;2.50;;;0.90;;
22973;SDS011;11653;50.848;4.584;2022-12-29T00:41:20;0.90;;;0.90;;
22973;SDS011;11653;50.848;4.584;2022-12-29T00:44:04;2.23;;;1.17;;
22973;SDS011;11653;50.848;4.584;2022-12-29T00:46:31;4.07;;;1.27;;
22973;SDS011;11653;50.848;4.584;2022-12-29T00:49:01;2.07;;;0.80;;
22973;SDS011;11653;50.848;4.584;2022-12-29T00:51:47;1.20;;;0.77;;
22973;SDS011;11653;50.848;4.584;2022-12-29T00:54:14;0.97;;;0.90;;
22973;SDS011;11653;50.848;4.584;2022-12-29T00:56:40;1.80;;;1.10;;
22973;SDS011;11653;50.848;4.584;2022-12-29T00:59:07;2.97;;;1.10;;
22973;SDS011;11653;50.848;4.584;2022-12-29T01:01:35;4.57;;;0.90;;
22973;SDS011;11653;50.848;4.584;2022-12-29T01:04:02;2.20;;;1.03;;
22973;SDS011;11653;50.848;4.584;2022-12-29T01:06:28;2.70;;;1.00;;
22973;SDS011;11653;50.848;4.584;2022-12-29T01:08:54;3.07;;;0.93;;
22973;SDS011;11653;50.848;4.584;2022-12-29T01:11:42;2.07;;;1.03;;
22973;SDS011;11653;50.848;4.584;2022-12-29T01:14:08;3.03;;;1.20;;
22973;SDS011;11653;50.848;4.584;2022-12-29T01:16:34;2.70;;;1.07;;
22973;SDS011;11653;50.848;4.584;2022-12-29T01:19:01;3.90;;;1.37;;
22973;SDS011;11653;50.848;4.584;2022-12-29T01:21:27;2.17;;;1.10;;
22973;SDS011;11653;50.848;4.584;2022-12-29T01:23:53;6.33;;;1.10;;
22973;SDS011;11653;50.848;4.584;2022-12-29T01:26:18;2.63;;;1.00;;
22973;SDS011;11653;50.848;4.584;2022-12-29T01:28:44;2.27;;;1.07;;
22973;SDS011;11653;50.848;4.584;2022-12-29T01:31:12;2.47;;;1.23;;
22973;SDS011;11653;50.848;4.584;2022-12-29T01:33:39;2.57;;;1.37;;
22973;SDS011;11653;50.848;4.584;2022-12-29T01:36:06;2.47;;;1.40;;
22973;SDS011;11653;50.848;4.584;2022-12-29T01:38:33;1.30;;;1.20;;
22973;SDS011;11653;50.848;4.584;2022-12-29T01:41:00;4.63;;;1.60;;
22973;SDS011;11653;50.848;4.584;2022-12-29T01:43:46;3.93;;;1.40;;
22973;SDS011;11653;50.848;4.584;2022-12-29T01:48:48;2.77;;;1.37;;
22973;SDS011;11653;50.848;4.584;2022-12-29T01:51:17;3.23;;;1.40;;
22973;SDS011;11653;50.848;4.584;2022-12-29T01:53:44;5.73;;;2.33;;
22973;SDS011;11653;50.848;4.584;2022-12-29T01:56:10;4.17;;;1.50;;
22973;SDS011;11653;50.848;4.584;2022-12-29T01:58:41;4.30;;;1.60;;
22973;SDS011;11653;50.848;4.584;2022-12-29T02:01:12;2.60;;;1.40;;
22973;SDS011;11653;50.848;4.584;2022-12-29T02:03:39;1.87;;;1.00;;
22973;SDS011;11653;50.848;4.584;2022-12-29T02:08:40;2.13;;;1.00;;
22973;SDS011;11653;50.848;4.584;2022-12-29T02:11:06;1.70;;;1.10;;
22973;SDS011;11653;50.848;4.584;2022-12-29T02:13:32;4.43;;;1.00;;
22973;SDS011;11653;50.848;4.584;2022-12-29T02:21:51;2.80;;;1.63;;
22973;SDS011;11653;50.848;4.584;2022-12-29T02:29:51;2.00;;;1.10;;
22973;SDS011;11653;50.848;4.584;2022-12-29T02:32:40;1.53;;;1.30;;
22973;SDS011;11653;50.848;4.584;2022-12-29T02:35:20;2.03;;;1.23;;
22973;SDS011;11653;50.848;4.584;2022-12-29T02:40:51;1.30;;;1.20;;
22973;SDS011;11653;50.848;4.584;2022-12-29T02:43:27;5.53;;;1.60;;
22973;SDS011;11653;50.848;4.584;2022-12-29T02:46:03;3.37;;;1.60;;
22973;SDS011;11653;50.848;4.584;2022-12-29T02:48:38;5.23;;;1.60;;
22973;SDS011;11653;50.848;4.584;2022-12-29T02:51:21;1.53;;;1.40;;
22973;SDS011;11653;50.848;4.584;2022-12-29T02:53:52;2.27;;;1.60;;
22973;SDS011;11653;50.848;4.584;2022-12-29T02:56:38;3.60;;;1.60;;
22973;SDS011;11653;50.848;4.584;2022-12-29T02:59:03;1.57;;;1.33;;
22973;SDS011;11653;50.848;4.584;2022-12-29T03:01:40;4.47;;;1.17;;
22973;SDS011;11653;50.848;4.584;2022-12-29T03:04:35;1.37;;;1.10;;
22973;SDS011;11653;50.848;4.584;2022-12-29T03:15:44;1.43;;;1.33;;
22973;SDS011;11653;50.848;4.584;2022-12-29T03:21:14;2.23;;;1.20;;
22973;SDS011;11653;50.848;4.584;2022-12-29T03:23:44;1.40;;;1.40;;
22973;SDS011;11653;50.848;4.584;2022-12-29T03:26:12;3.20;;;1.33;;
22973;SDS011;11653;50.848;4.584;2022-12-29T03:28:53;2.33;;;1.30;;
22973;SDS011;11653;50.848;4.584;2022-12-29T03:31:22;1.77;;;1.60;;
22973;SDS011;11653;50.848;4.584;2022-12-29T03:33:49;2.00;;;1.80;;
22973;SDS011;11653;50.848;4.584;2022-12-29T03:36:17;1.73;;;1.57;;
22973;SDS011;11653;50.848;4.584;2022-12-29T03:39:06;1.67;;;1.67;;
22973;SDS011;11653;50.848;4.584;2022-12-29T03:41:37;2.90;;;1.70;;
22973;SDS011;11653;50.848;4.584;2022-12-29T03:44:05;1.93;;;1.33;;
22973;SDS011;11653;50.848;4.584;2022-12-29T03:46:32;6.03;;;1.60;;
22973;SDS011;11653;50.848;4.584;2022-12-29T03:48:57;2.83;;;1.60;;
22973;SDS011;11653;50.848;4.584;2022-12-29T03:51:23;5.77;;;1.33;;
22973;SDS011;11653;50.848;4.584;2022-12-29T03:53:49;3.23;;;1.40;;
22973;SDS011;11653;50.848;4.584;2022-12-29T03:56:14;3.83;;;1.17;;
22973;SDS011;11653;50.848;4.584;2022-12-29T03:58:40;4.53;;;1.40;;
22973;SDS011;11653;50.848;4.584;2022-12-29T04:01:06;5.07;;;1.40;;
22973;SDS011;11653;50.848;4.584;2022-12-29T04:03:31;3.63;;;1.07;;
22973;SDS011;11653;50.848;4.584;2022-12-29T04:05:57;5.13;;;1.00;;
22973;SDS011;11653;50.848;4.584;2022-12-29T04:08:23;2.67;;;0.70;;
22973;SDS011;11653;50.848;4.584;2022-12-29T04:10:49;2.60;;;1.00;;
22973;SDS011;11653;50.848;4.584;2022-12-29T04:13:15;3.03;;;1.00;;
22973;SDS011;11653;50.848;4.584;2022-12-29T04:15:42;4.80;;;1.10;;
22973;SDS011;11653;50.848;4.584;2022-12-29T04:18:08;1.07;;;0.70;;
22973;SDS011;11653;50.848;4.584;2022-12-29T04:20:34;5.17;;;0.90;;
22973;SDS011;11653;50.848;4.584;2022-12-29T04:23:18;4.80;;;0.90;;
22973;SDS011;11653;50.848;4.584;2022-12-29T04:25:47;5.63;;;1.20;;
22973;SDS011;11653;50.848;4.584;2022-12-29T04:28:13;6.23;;;2.13;;
22973;SDS011;11653;50.848;4.584;2022-12-29T04:30:39;2.17;;;1.03;;
22973;SDS011;11653;50.848;4.584;2022-12-29T04:33:05;4.37;;;1.13;;
22973;SDS011;11653;50.848;4.584;2022-12-29T04:35:31;5.37;;;1.00;;
22973;SDS011;11653;50.848;4.584;2022-12-29T04:37:57;2.50;;;1.03;;
22973;SDS011;11653;50.848;4.584;2022-12-29T04:40:23;5.83;;;1.43;;
22973;SDS011;11653;50.848;4.584;2022-12-29T04:42:49;2.80;;;1.03;;
22973;SDS011;11653;50.848;4.584;2022-12-29T04:45:15;2.60;;;0.97;;
22973;SDS011;11653;50.848;4.584;2022-12-29T04:47:41;6.20;;;1.47;;
22973;SDS011;11653;50.848;4.584;2022-12-29T04:50:07;4.83;;;1.00;;
22973;SDS011;11653;50.848;4.584;2022-12-29T04:52:33;3.83;;;1.10;;
22973;SDS011;11653;50.848;4.584;2022-12-29T04:54:59;1.97;;;1.00;;
22973;SDS011;11653;50.848;4.584;2022-12-29T04:57:25;3.97;;;1.10;;
22973;SDS011;11653;50.848;4.584;2022-12-29T04:59:51;6.57;;;0.97;;
22973;SDS011;11653;50.848;4.584;2022-12-29T05:02:17;3.20;;;0.80;;
22973;SDS011;11653;50.848;4.584;2022-12-29T05:04:42;4.80;;;0.93;;
22973;SDS011;11653;50.848;4.584;2022-12-29T05:07:08;3.07;;;1.20;;
22973;SDS011;11653;50.848;4.584;2022-12-29T05:09:34;5.43;;;1.10;;
22973;SDS011;11653;50.848;4.584;2022-12-29T05:12:00;4.57;;;0.97;;
22973;SDS011;11653;50.848;4.584;2022-12-29T05:14:26;8.33;;;1.40;;
22973;SDS011;11653;50.848;4.584;2022-12-29T05:16:51;7.50;;;1.10;;
22973;SDS011;11653;50.848;4.584;2022-12-29T05:19:17;6.60;;;1.50;;
22973;SDS011;11653;50.848;4.584;2022-12-29T05:21:43;4.80;;;0.87;;
22973;SDS011;11653;50.848;4.584;2022-12-29T05:24:09;6.17;;;1.20;;
22973;SDS011;11653;50.848;4.584;2022-12-29T05:26:35;6.30;;;1.10;;
22973;SDS011;11653;50.848;4.584;2022-12-29T05:29:00;3.20;;;0.83;;
22973;SDS011;11653;50.848;4.584;2022-12-29T05:31:27;5.10;;;1.30;;
22973;SDS011;11653;50.848;4.584;2022-12-29T05:33:52;6.77;;;1.40;;
22973;SDS011;11653;50.848;4.584;2022-12-29T05:36:18;3.10;;;1.07;;
22973;SDS011;11653;50.848;4.584;2022-12-29T05:38:44;3.20;;;1.13;;
22973;SDS011;11653;50.848;4.584;2022-12-29T05:41:10;6.60;;;1.20;;
22973;SDS011;11653;50.848;4.584;2022-12-29T05:43:36;8.27;;;2.10;;
22973;SDS011;11653;50.848;4.584;2022-12-29T05:46:01;9.80;;;1.93;;
22973;SDS011;11653;50.848;4.584;2022-12-29T05:48:28;5.20;;;0.90;;
22973;SDS011;11653;50.848;4.584;2022-12-29T05:50:54;3.70;;;0.93;;
22973;SDS011;11653;50.848;4.584;2022-12-29T05:53:19;7.47;;;1.53;;
22973;SDS011;11653;50.848;4.584;2022-12-29T05:55:48;3.83;;;1.03;;
22973;SDS011;11653;50.848;4.584;2022-12-29T05:58:15;5.17;;;1.03;;
22973;SDS011;11653;50.848;4.584;2022-12-29T06:00:41;6.93;;;1.30;;
22973;SDS011;11653;50.848;4.584;2022-12-29T06:03:07;5.27;;;1.20;;
22973;SDS011;11653;50.848;4.584;2022-12-29T06:05:33;11.87;;;1.30;;
22973;SDS011;11653;50.848;4.584;2022-12-29T06:07:59;6.83;;;1.23;;
22973;SDS011;11653;50.848;4.584;2022-12-29T06:10:24;6.33;;;2.00;;
22973;SDS011;11653;50.848;4.584;2022-12-29T06:12:50;6.90;;;1.50;;
22973;SDS011;11653;50.848;4.584;2022-12-29T06:15:16;2.93;;;1.00;;
22973;SDS011;11653;50.848;4.584;2022-12-29T06:17:42;5.03;;;1.10;;
22973;SDS011;11653;50.848;4.584;2022-12-29T06:20:08;8.03;;;1.50;;
22973;SDS011;11653;50.848;4.584;2022-12-29T06:22:35;3.77;;;1.03;;
22973;SDS011;11653;50.848;4.584;2022-12-29T06:25:01;8.23;;;2.50;;
22973;SDS011;11653;50.848;4.584;2022-12-29T06:27:28;6.37;;;1.53;;
22973;SDS011;11653;50.848;4.584;2022-12-29T06:29:54;7.03;;;1.53;;
22973;SDS011;11653;50.848;4.584;2022-12-29T06:32:20;4.43;;;1.30;;
22973;SDS011;11653;50.848;4.584;2022-12-29T06:34:46;10.47;;;1.53;;
22973;SDS011;11653;50.848;4.584;2022-12-29T06:37:11;6.17;;;1.37;;
22973;SDS011;11653;50.848;4.584;2022-12-29T06:39:38;7.53;;;1.20;;
22973;SDS011;11653;50.848;4.584;2022-12-29T06:42:03;9.57;;;1.63;;
22973;SDS011;11653;50.848;4.584;2022-12-29T06:44:29;8.67;;;1.80;;
22973;SDS011;11653;50.848;4.584;2022-12-29T06:46:55;7.60;;;1.43;;
22973;SDS011;11653;50.848;4.584;2022-12-29T06:49:22;6.77;;;1.43;;
22973;SDS011;11653;50.848;4.584;2022-12-29T06:51:48;9.17;;;1.60;;
22973;SDS011;11653;50.848;4.584;2022-12-29T06:54:13;7.03;;;1.70;;
22973;SDS011;11653;50.848;4.584;2022-12-29T06:56:39;8.73;;;1.77;;
22973;SDS011;11653;50.848;4.584;2022-12-29T06:59:05;6.20;;;1.13;;
22973;SDS011;11653;50.848;4.584;2022-12-29T07:01:31;5.57;;;1.23;;
22973;SDS011;11653;50.848;4.584;2022-12-29T07:03:56;4.07;;;1.33;;
22973;SDS011;11653;50.848;4.584;2022-12-29T07:06:22;6.67;;;1.87;;
22973;SDS011;11653;50.848;4.584;2022-12-29T07:08:48;6.70;;;1.50;;
22973;SDS011;11653;50.848;4.584;2022-12-29T07:11:14;14.67;;;1.97;;
22973;SDS011;11653;50.848;4.584;2022-12-29T07:13:39;3.93;;;1.37;;
22973;SDS011;11653;50.848;4.584;2022-12-29T07:16:08;9.37;;;1.77;;
22973;SDS011;11653;50.848;4.584;2022-12-29T07:18:35;6.07;;;1.40;;
22973;SDS011;11653;50.848;4.584;2022-12-29T07:21:01;6.47;;;1.33;;
22973;SDS011;11653;50.848;4.584;2022-12-29T07:23:27;11.30;;;2.07;;
22973;SDS011;11653;50.848;4.584;2022-12-29T07:26:02;10.03;;;1.83;;
22973;SDS011;11653;50.848;4.584;2022-12-29T07:28:29;8.63;;;1.63;;
22973;SDS011;11653;50.848;4.584;2022-12-29T07:30:57;5.43;;;1.60;;
22973;SDS011;11653;50.848;4.584;2022-12-29T07:33:23;6.87;;;1.63;;
22973;SDS011;11653;50.848;4.584;2022-12-29T07:35:49;10.77;;;1.60;;
22973;SDS011;11653;50.848;4.584;2022-12-29T07:38:15;5.40;;;1.73;;
22973;SDS011;11653;50.848;4.584;2022-12-29T07:40:41;7.10;;;1.60;;
22973;SDS011;11653;50.848;4.584;2022-12-29T07:43:07;11.17;;;1.63;;
22973;SDS011;11653;50.848;4.584;2022-12-29T07:45:33;15.60;;;2.13;;
22973;SDS011;11653;50.848;4.584;2022-12-29T07:47:59;6.60;;;1.43;;
22973;SDS011;11653;50.848;4.584;2022-12-29T07:50:24;10.97;;;1.47;;
22973;SDS011;11653;50.848;4.584;2022-12-29T07:52:50;10.50;;;1.30;;
22973;SDS011;11653;50.848;4.584;2022-12-29T07:55:16;10.33;;;1.93;;
22973;SDS011;11653;50.848;4.584;2022-12-29T07:57:41;8.53;;;1.93;;
22973;SDS011;11653;50.848;4.584;2022-12-29T08:00:07;15.00;;;2.13;;
22973;SDS011;11653;50.848;4.584;2022-12-29T08:02:34;6.70;;;1.67;;
22973;SDS011;11653;50.848;4.584;2022-12-29T08:05:00;3.53;;;1.30;;
22973;SDS011;11653;50.848;4.584;2022-12-29T08:07:26;5.67;;;1.50;;
22973;SDS011;11653;50.848;4.584;2022-12-29T08:09:52;11.63;;;2.30;;
22973;SDS011;11653;50.848;4.584;2022-12-29T08:12:17;6.40;;;1.20;;
22973;SDS011;11653;50.848;4.584;2022-12-29T08:14:43;8.23;;;1.70;;
22973;SDS011;11653;50.848;4.584;2022-12-29T08:17:09;3.87;;;1.23;;
22973;SDS011;11653;50.848;4.584;2022-12-29T08:19:35;6.27;;;1.67;;
22973;SDS011;11653;50.848;4.584;2022-12-29T08:22:01;13.70;;;2.30;;
22973;SDS011;11653;50.848;4.584;2022-12-29T08:24:27;4.83;;;1.53;;
22973;SDS011;11653;50.848;4.584;2022-12-29T08:26:53;12.83;;;2.87;;
22973;SDS011;11653;50.848;4.584;2022-12-29T08:29:19;10.00;;;2.13;;
22973;SDS011;11653;50.848;4.584;2022-12-29T08:31:46;11.00;;;2.00;;
22973;SDS011;11653;50.848;4.584;2022-12-29T08:34:12;8.90;;;1.90;;
22973;SDS011;11653;50.848;4.584;2022-12-29T08:36:38;6.40;;;2.10;;
22973;SDS011;11653;50.848;4.584;2022-12-29T08:39:04;6.93;;;1.57;;
22973;SDS011;11653;50.848;4.584;2022-12-29T08:41:30;7.40;;;1.80;;
22973;SDS011;11653;50.848;4.584;2022-12-29T08:43:56;8.03;;;1.67;;
22973;SDS011;11653;50.848;4.584;2022-12-29T08:46:21;14.30;;;2.40;;
22973;SDS011;11653;50.848;4.584;2022-12-29T08:48:47;7.70;;;1.67;;
22973;SDS011;11653;50.848;4.584;2022-12-29T08:51:13;11.43;;;1.63;;
22973;SDS011;11653;50.848;4.584;2022-12-29T08:53:39;10.60;;;1.53;;
22973;SDS011;11653;50.848;4.584;2022-12-29T08:56:05;10.03;;;1.80;;
22973;SDS011;11653;50.848;4.584;2022-12-29T08:58:33;7.77;;;1.90;;
22973;SDS011;11653;50.848;4.584;2022-12-29T09:00:58;8.57;;;1.60;;
22973;SDS011;11653;50.848;4.584;2022-12-29T09:03:25;7.43;;;1.90;;
22973;SDS011;11653;50.848;4.584;2022-12-29T09:05:52;7.50;;;1.90;;
22973;SDS011;11653;50.848;4.584;2022-12-29T09:08:19;11.83;;;2.57;;
22973;SDS011;11653;50.848;4.584;2022-12-29T09:10:45;9.13;;;1.67;;
22973;SDS011;11653;50.848;4.584;2022-12-29T09:13:11;6.43;;;1.50;;
22973;SDS011;11653;50.848;4.584;2022-12-29T09:15:38;11.97;;;1.87;;
22973;SDS011;11653;50.848;4.584;2022-12-29T09:18:04;9.90;;;2.07;;
22973;SDS011;11653;50.848;4.584;2022-12-29T09:20:31;12.70;;;2.20;;
22973;SDS011;11653;50.848;4.584;2022-12-29T09:22:57;8.10;;;1.57;;
22973;SDS011;11653;50.848;4.584;2022-12-29T09:25:23;7.37;;;1.60;;
22973;SDS011;11653;50.848;4.584;2022-12-29T09:27:50;7.60;;;1.40;;
22973;SDS011;11653;50.848;4.584;2022-12-29T09:30:18;13.47;;;1.70;;
22973;SDS011;11653;50.848;4.584;2022-12-29T09:32:44;5.90;;;1.57;;
22973;SDS011;11653;50.848;4.584;2022-12-29T09:35:10;11.00;;;2.20;;
22973;SDS011;11653;50.848;4.584;2022-12-29T09:37:36;6.40;;;1.40;;
22973;SDS011;11653;50.848;4.584;2022-12-29T09:40:03;8.63;;;1.93;;
22973;SDS011;11653;50.848;4.584;2022-12-29T09:42:55;11.67;;;1.97;;
22973;SDS011;11653;50.848;4.584;2022-12-29T09:45:51;10.63;;;1.87;;
22973;SDS011;11653;50.848;4.584;2022-12-29T09:48:26;6.63;;;1.73;;
22973;SDS011;11653;50.848;4.584;2022-12-29T09:50:57;6.73;;;1.73;;
22973;SDS011;11653;50.848;4.584;2022-12-29T09:53:36;16.00;;;2.23;;
22973;SDS011;11653;50.848;4.584;2022-12-29T09:56:07;7.93;;;1.50;;
22973;SDS011;11653;50.848;4.584;2022-12-29T09:58:42;12.37;;;1.80;;
22973;SDS011;11653;50.848;4.584;2022-12-29T10:01:43;9.63;;;1.80;;
22973;SDS011;11653;50.848;4.584;2022-12-29T10:04:12;7.47;;;1.60;;
22973;SDS011;11653;50.848;4.584;2022-12-29T10:06:46;6.13;;;1.63;;
22973;SDS011;11653;50.848;4.584;2022-12-29T10:25:34;10.20;;;2.33;;
22973;SDS011;11653;50.848;4.584;2022-12-29T10:28:20;4.53;;;1.30;;
22973;SDS011;11653;50.848;4.584;2022-12-29T10:30:48;10.80;;;2.23;;
22973;SDS011;11653;50.848;4.584;2022-12-29T10:33:17;13.97;;;2.40;;
22973;SDS011;11653;50.848;4.584;2022-12-29T10:35:46;8.70;;;1.83;;
22973;SDS011;11653;50.848;4.584;2022-12-29T10:38:15;7.57;;;2.00;;
22973;SDS011;11653;50.848;4.584;2022-12-29T10:43:28;14.13;;;2.40;;
22973;SDS011;11653;50.848;4.584;2022-12-29T10:45:59;14.10;;;2.20;;
22973;SDS011;11653;50.848;4.584;2022-12-29T10:48:34;9.77;;;2.20;;
22973;SDS011;11653;50.848;4.584;2022-12-29T10:51:06;7.63;;;1.97;;
22973;SDS011;11653;50.848;4.584;2022-12-29T10:53:46;7.77;;;1.67;;
22973;SDS011;11653;50.848;4.584;2022-12-29T10:56:35;6.70;;;1.80;;
22973;SDS011;11653;50.848;4.584;2022-12-29T10:59:15;3.70;;;1.30;;
22973;SDS011;11653;50.848;4.584;2022-12-29T11:07:07;10.80;;;2.23;;
22973;SDS011;11653;50.848;4.584;2022-12-29T11:09:35;12.73;;;2.00;;
22973;SDS011;11653;50.848;4.584;2022-12-29T11:12:22;8.90;;;2.13;;
22973;SDS011;11653;50.848;4.584;2022-12-29T11:17:26;7.83;;;1.40;;
22973;SDS011;11653;50.848;4.584;2022-12-29T11:19:52;4.63;;;1.07;;
22973;SDS011;11653;50.848;4.584;2022-12-29T11:22:21;8.70;;;1.80;;
22973;SDS011;11653;50.848;4.584;2022-12-29T11:24:54;7.80;;;1.67;;
22973;SDS011;11653;50.848;4.584;2022-12-29T11:27:31;7.03;;;1.50;;
22973;SDS011;11653;50.848;4.584;2022-12-29T11:29:57;7.97;;;2.20;;
22973;SDS011;11653;50.848;4.584;2022-12-29T11:32:24;5.87;;;1.90;;
22973;SDS011;11653;50.848;4.584;2022-12-29T11:34:51;12.53;;;1.83;;
22973;SDS011;11653;50.848;4.584;2022-12-29T11:37:18;9.27;;;1.80;;
22973;SDS011;11653;50.848;4.584;2022-12-29T11:39:59;7.00;;;1.67;;
22973;SDS011;11653;50.848;4.584;2022-12-29T11:45:18;8.33;;;2.03;;
22973;SDS011;11653;50.848;4.584;2022-12-29T11:48:01;9.23;;;2.27;;
22973;SDS011;11653;50.848;4.584;2022-12-29T11:50:33;8.20;;;1.77;;
22973;SDS011;11653;50.848;4.584;2022-12-29T11:56:08;15.27;;;2.87;;
22973;SDS011;11653;50.848;4.584;2022-12-29T11:58:38;10.20;;;2.17;;
22973;SDS011;11653;50.848;4.584;2022-12-29T12:01:22;11.00;;;2.10;;
22973;SDS011;11653;50.848;4.584;2022-12-29T12:04:01;10.57;;;1.90;;
22973;SDS011;11653;50.848;4.584;2022-12-29T12:06:32;5.27;;;0.90;;
22973;SDS011;11653;50.848;4.584;2022-12-29T12:09:03;6.53;;;1.27;;
22973;SDS011;11653;50.848;4.584;2022-12-29T12:11:39;11.57;;;2.60;;
22973;SDS011;11653;50.848;4.584;2022-12-29T12:16:41;8.97;;;1.90;;
22973;SDS011;11653;50.848;4.584;2022-12-29T12:19:16;5.67;;;2.20;;
22973;SDS011;11653;50.848;4.584;2022-12-29T12:21:57;6.70;;;1.77;;
22973;SDS011;11653;50.848;4.584;2022-12-29T12:27:14;11.00;;;2.00;;
22973;SDS011;11653;50.848;4.584;2022-12-29T12:34:54;9.50;;;1.70;;
22973;SDS011;11653;50.848;4.584;2022-12-29T12:37:33;7.10;;;2.10;;
22973;SDS011;11653;50.848;4.584;2022-12-29T12:45:32;8.67;;;1.83;;
22973;SDS011;11653;50.848;4.584;2022-12-29T12:48:09;10.50;;;2.30;;
22973;SDS011;11653;50.848;4.584;2022-12-29T13:01:21;6.93;;;1.93;;
22973;SDS011;11653;50.848;4.584;2022-12-29T13:12:32;13.07;;;2.60;;
22973;SDS011;11653;50.848;4.584;2022-12-29T13:20:58;9.73;;;2.23;;
22973;SDS011;11653;50.848;4.584;2022-12-29T13:23:43;5.17;;;1.80;;
22973;SDS011;11653;50.848;4.584;2022-12-29T13:26:25;7.10;;;1.57;;
22973;SDS011;11653;50.848;4.584;2022-12-29T13:36:59;7.63;;;1.93;;
22973;SDS011;11653;50.848;4.584;2022-12-29T13:42:00;9.50;;;1.93;;
22973;SDS011;11653;50.848;4.584;2022-12-29T13:44:29;10.67;;;2.10;;
22973;SDS011;11653;50.848;4.584;2022-12-29T13:47:00;11.30;;;1.93;;
22973;SDS011;11653;50.848;4.584;2022-12-29T13:49:29;8.57;;;2.40;;
22973;SDS011;11653;50.848;4.584;2022-12-29T13:51:58;12.93;;;2.07;;
22973;SDS011;11653;50.848;4.584;2022-12-29T13:54:46;11.70;;;3.00;;
22973;SDS011;11653;50.848;4.584;2022-12-29T14:00:12;9.00;;;2.00;;
22973;SDS011;11653;50.848;4.584;2022-12-29T14:08:13;19.90;;;3.47;;
22973;SDS011;11653;50.848;4.584;2022-12-29T14:10:48;6.63;;;1.73;;
22973;SDS011;11653;50.848;4.584;2022-12-29T14:15:54;12.97;;;2.50;;
22973;SDS011;11653;50.848;4.584;2022-12-29T14:18:29;12.43;;;2.87;;
22973;SDS011;11653;50.848;4.584;2022-12-29T14:20:58;14.60;;;2.80;;
22973;SDS011;11653;50.848;4.584;2022-12-29T14:23:29;13.03;;;2.70;;
22973;SDS011;11653;50.848;4.584;2022-12-29T14:28:40;12.63;;;2.60;;
22973;SDS011;11653;50.848;4.584;2022-12-29T14:33:39;14.23;;;2.47;;
22973;SDS011;11653;50.848;4.584;2022-12-29T14:36:19;16.40;;;2.50;;
22973;SDS011;11653;50.848;4.584;2022-12-29T14:38:58;12.70;;;2.63;;
22973;SDS011;11653;50.848;4.584;2022-12-29T14:41:26;16.23;;;3.60;;
22973;SDS011;11653;50.848;4.584;2022-12-29T14:43:59;18.53;;;2.87;;
22973;SDS011;11653;50.848;4.584;2022-12-29T14:49:20;13.37;;;3.37;;
22973;SDS011;11653;50.848;4.584;2022-12-29T14:51:50;16.70;;;3.13;;
22973;SDS011;11653;50.848;4.584;2022-12-29T14:54:40;12.90;;;2.53;;
22973;SDS011;11653;50.848;4.584;2022-12-29T14:57:32;11.70;;;2.30;;
22973;SDS011;11653;50.848;4.584;2022-12-29T15:00:03;13.60;;;2.63;;
22973;SDS011;11653;50.848;4.584;2022-12-29T15:02:54;18.93;;;3.33;;
22973;SDS011;11653;50.848;4.584;2022-12-29T15:08:09;11.47;;;2.90;;
22973;SDS011;11653;50.848;4.584;2022-12-29T15:10:42;11.00;;;2.23;;
22973;SDS011;11653;50.848;4.584;2022-12-29T15:13:16;14.27;;;2.20;;
22973;SDS011;11653;50.848;4.584;2022-12-29T15:15:47;8.13;;;2.23;;
22973;SDS011;11653;50.848;4.584;2022-12-29T15:18:23;10.97;;;2.43;;
22973;SDS011;11653;50.848;4.584;2022-12-29T15:20:53;9.87;;;2.17;;
22973;SDS011;11653;50.848;4.584;2022-12-29T15:23:22;7.23;;;1.50;;
22973;SDS011;11653;50.848;4.584;2022-12-29T15:25:50;7.47;;;1.70;;
22973;SDS011;11653;50.848;4.584;2022-12-29T15:28:20;1.73;;;1.10;;
22973;SDS011;11653;50.848;4.584;2022-12-29T15:31:06;3.03;;;1.50;;
22973;SDS011;11653;50.848;4.584;2022-12-29T15:33:40;8.53;;;1.47;;
22973;SDS011;11653;50.848;4.584;2022-12-29T15:36:12;10.33;;;1.50;;
22973;SDS011;11653;50.848;4.584;2022-12-29T15:38:42;5.70;;;1.87;;
22973;SDS011;11653;50.848;4.584;2022-12-29T15:41:32;7.20;;;2.00;;
22973;SDS011;11653;50.848;4.584;2022-12-29T15:44:28;7.80;;;1.70;;
22973;SDS011;11653;50.848;4.584;2022-12-29T15:46:55;6.97;;;2.03;;
22973;SDS011;11653;50.848;4.584;2022-12-29T15:49:21;6.13;;;2.10;;
22973;SDS011;11653;50.848;4.584;2022-12-29T15:51:48;6.83;;;2.00;;
22973;SDS011;11653;50.848;4.584;2022-12-29T15:54:19;5.80;;;2.73;;
22973;SDS011;11653;50.848;4.584;2022-12-29T15:56:46;9.33;;;2.13;;
22973;SDS011;11653;50.848;4.584;2022-12-29T15:59:33;16.03;;;2.80;;
22973;SDS011;11653;50.848;4.584;2022-12-29T16:02:00;8.90;;;2.13;;
22973;SDS011;11653;50.848;4.584;2022-12-29T16:04:29;6.77;;;1.87;;
22973;SDS011;11653;50.848;4.584;2022-12-29T16:07:00;11.60;;;2.10;;
22973;SDS011;11653;50.848;4.584;2022-12-29T16:09:32;10.17;;;2.50;;
22973;SDS011;11653;50.848;4.584;2022-12-29T16:12:15;6.83;;;2.50;;
22973;SDS011;11653;50.848;4.584;2022-12-29T16:14:45;11.70;;;3.20;;
22973;SDS011;11653;50.848;4.584;2022-12-29T16:17:23;7.10;;;2.67;;
22973;SDS011;11653;50.848;4.584;2022-12-29T16:22:32;12.93;;;2.80;;
22973;SDS011;11653;50.848;4.584;2022-12-29T16:25:06;12.13;;;3.00;;
22973;SDS011;11653;50.848;4.584;2022-12-29T16:27:39;17.93;;;3.97;;
22973;SDS011;11653;50.848;4.584;2022-12-29T16:30:16;15.70;;;3.17;;
22973;SDS011;11653;50.848;4.584;2022-12-29T16:32:46;17.40;;;3.63;;
22973;SDS011;11653;50.848;4.584;2022-12-29T16:38:20;19.07;;;3.83;;
22973;SDS011;11653;50.848;4.584;2022-12-29T16:43:24;12.93;;;3.50;;
22973;SDS011;11653;50.848;4.584;2022-12-29T16:48:18;21.90;;;5.00;;
22973;SDS011;11653;50.848;4.584;2022-12-29T16:50:46;19.60;;;3.73;;
22973;SDS011;11653;50.848;4.584;2022-12-29T16:55:51;16.70;;;5.40;;
22973;SDS011;11653;50.848;4.584;2022-12-29T16:58:19;21.93;;;4.57;;
22973;SDS011;11653;50.848;4.584;2022-12-29T17:00:48;14.97;;;3.43;;
22973;SDS011;11653;50.848;4.584;2022-12-29T17:03:17;16.10;;;3.50;;
22973;SDS011;11653;50.848;4.584;2022-12-29T17:05:43;11.90;;;3.20;;
22973;SDS011;11653;50.848;4.584;2022-12-29T17:08:16;16.20;;;4.10;;
22973;SDS011;11653;50.848;4.584;2022-12-29T17:10:54;17.80;;;3.77;;
22973;SDS011;11653;50.848;4.584;2022-12-29T17:13:40;17.93;;;3.40;;
22973;SDS011;11653;50.848;4.584;2022-12-29T17:16:06;16.57;;;3.70;;
22973;SDS011;11653;50.848;4.584;2022-12-29T17:18:35;16.57;;;3.63;;
22973;SDS011;11653;50.848;4.584;2022-12-29T17:21:01;10.27;;;2.60;;
22973;SDS011;11653;50.848;4.584;2022-12-29T17:23:26;15.37;;;3.50;;
22973;SDS011;11653;50.848;4.584;2022-12-29T17:25:54;13.63;;;2.90;;
22973;SDS011;11653;50.848;4.584;2022-12-29T17:30:55;15.37;;;3.07;;
22973;SDS011;11653;50.848;4.584;2022-12-29T17:33:24;19.70;;;3.47;;
22973;SDS011;11653;50.848;4.584;2022-12-29T17:35:50;10.37;;;2.47;;
22973;SDS011;11653;50.848;4.584;2022-12-29T17:40:47;13.40;;;2.63;;